sensor_id;sensor_type;location;lat;lon;timestamp;P1;durP1;ratioP1;P2;durP2;ratioP2
78312;SDS011;67568;47.438;21.408;2023-08-21T08:51:31;15.43;;;9.37;;
78312;SDS011;67568;47.438;21.408;2023-08-21T08:54:01;16.55;;;9.52;;
78312;SDS011;67568;47.438;21.408;2023-08-21T08:56:28;14.82;;;9.70;;
78312;SDS011;67568;47.438;21.408;2023-08-21T08:58:58;17.02;;;9.25;;
78312;SDS011;67568;47.438;21.408;2023-08-21T09:01:25;13.13;;;9.23;;
78312;SDS011;67568;47.438;21.408;2023-08-21T09:03:54;12.43;;;9.13;;
78312;SDS011;67568;47.438;21.408;2023-08-21T09:06:21;13.77;;;9.00;;
78312;SDS011;67568;47.438;21.408;2023-08-21T09:08:54;12.63;;;9.23;;
78312;SDS011;67568;47.438;21.408;2023-08-21T09:11:23;12.98;;;8.70;;
78312;SDS011;67568;47.438;21.408;2023-08-21T09:13:53;11.55;;;8.15;;
78312;SDS011;67568;47.438;21.408;2023-08-21T09:16:23;11.33;;;8.73;;
78312;SDS011;67568;47.438;21.408;2023-08-21T09:19:08;12.23;;;8.45;;
78312;SDS011;67568;47.438;21.408;2023-08-21T09:21:35;13.18;;;8.43;;
78312;SDS011;67568;47.438;21.408;2023-08-21T09:24:05;11.73;;;8.23;;
78312;SDS011;67568;47.438;21.408;2023-08-21T09:26:43;12.82;;;8.25;;
78312;SDS011;67568;47.438;21.408;2023-08-21T09:29:10;12.90;;;7.50;;
78312;SDS011;67568;47.438;21.408;2023-08-21T09:31:44;12.45;;;8.60;;
78312;SDS011;67568;47.438;21.408;2023-08-21T09:34:12;13.80;;;8.60;;
78312;SDS011;67568;47.438;21.408;2023-08-21T09:36:46;15.63;;;8.55;;
78312;SDS011;67568;47.438;21.408;2023-08-21T09:39:32;13.48;;;8.57;;
78312;SDS011;67568;47.438;21.408;2023-08-21T09:42:09;14.17;;;8.57;;
78312;SDS011;67568;47.438;21.408;2023-08-21T09:44:40;11.27;;;7.95;;
78312;SDS011;67568;47.438;21.408;2023-08-21T09:47:10;15.70;;;8.45;;
78312;SDS011;67568;47.438;21.408;2023-08-21T09:49:40;11.00;;;7.65;;
78312;SDS011;67568;47.438;21.408;2023-08-21T09:52:08;12.90;;;8.20;;
78312;SDS011;67568;47.438;21.408;2023-08-21T09:54:42;11.57;;;8.13;;
78312;SDS011;67568;47.438;21.408;2023-08-21T09:57:11;13.70;;;8.15;;
78312;SDS011;67568;47.438;21.408;2023-08-21T09:59:46;12.55;;;8.38;;
78312;SDS011;67568;47.438;21.408;2023-08-21T10:02:15;12.45;;;8.25;;
78312;SDS011;67568;47.438;21.408;2023-08-21T10:04:42;13.48;;;9.00;;
78312;SDS011;67568;47.438;21.408;2023-08-21T10:07:16;11.13;;;8.40;;
78312;SDS011;67568;47.438;21.408;2023-08-21T10:09:48;11.48;;;8.38;;
78312;SDS011;67568;47.438;21.408;2023-08-21T10:12:16;16.17;;;8.65;;
78312;SDS011;67568;47.438;21.408;2023-08-21T10:14:44;14.50;;;8.70;;
78312;SDS011;67568;47.438;21.408;2023-08-21T10:17:11;12.15;;;8.13;;
78312;SDS011;67568;47.438;21.408;2023-08-21T10:19:38;12.43;;;8.07;;
78312;SDS011;67568;47.438;21.408;2023-08-21T10:22:05;11.73;;;8.23;;
78312;SDS011;67568;47.438;21.408;2023-08-21T10:24:35;12.20;;;8.45;;
78312;SDS011;67568;47.438;21.408;2023-08-21T10:27:08;14.45;;;8.18;;
78312;SDS011;67568;47.438;21.408;2023-08-21T10:29:38;14.38;;;7.88;;
78312;SDS011;67568;47.438;21.408;2023-08-21T10:32:05;10.73;;;7.37;;
78312;SDS011;67568;47.438;21.408;2023-08-21T10:34:33;13.10;;;8.07;;
78312;SDS011;67568;47.438;21.408;2023-08-21T10:37:10;11.55;;;8.20;;
78312;SDS011;67568;47.438;21.408;2023-08-21T10:39:55;12.63;;;7.57;;
78312;SDS011;67568;47.438;21.408;2023-08-21T10:42:39;11.05;;;8.35;;
78312;SDS011;67568;47.438;21.408;2023-08-21T10:45:13;12.87;;;8.30;;
78312;SDS011;67568;47.438;21.408;2023-08-21T10:47:47;11.85;;;7.95;;
78312;SDS011;67568;47.438;21.408;2023-08-21T10:50:14;13.07;;;8.13;;
78312;SDS011;67568;47.438;21.408;2023-08-21T10:52:42;12.60;;;8.32;;
78312;SDS011;67568;47.438;21.408;2023-08-21T10:55:22;10.50;;;7.88;;
78312;SDS011;67568;47.438;21.408;2023-08-21T10:57:49;10.57;;;7.70;;
78312;SDS011;67568;47.438;21.408;2023-08-21T11:00:17;10.88;;;7.35;;
78312;SDS011;67568;47.438;21.408;2023-08-21T11:02:49;13.70;;;8.40;;
78312;SDS011;67568;47.438;21.408;2023-08-21T11:05:18;10.40;;;7.53;;
78312;SDS011;67568;47.438;21.408;2023-08-21T11:07:46;16.17;;;8.65;;
78312;SDS011;67568;47.438;21.408;2023-08-21T11:10:18;11.27;;;7.97;;
78312;SDS011;67568;47.438;21.408;2023-08-21T11:12:58;12.07;;;8.05;;
78312;SDS011;67568;47.438;21.408;2023-08-21T11:15:28;11.80;;;7.85;;
78312;SDS011;67568;47.438;21.408;2023-08-21T11:18:01;9.75;;;6.95;;
78312;SDS011;67568;47.438;21.408;2023-08-21T11:20:29;12.25;;;7.75;;
78312;SDS011;67568;47.438;21.408;2023-08-21T11:22:58;11.03;;;7.63;;
78312;SDS011;67568;47.438;21.408;2023-08-21T11:25:34;10.88;;;7.20;;
78312;SDS011;67568;47.438;21.408;2023-08-21T11:28:06;10.50;;;7.57;;
78312;SDS011;67568;47.438;21.408;2023-08-21T11:30:36;11.38;;;7.68;;
78312;SDS011;67568;47.438;21.408;2023-08-21T11:33:15;11.93;;;7.40;;
78312;SDS011;67568;47.438;21.408;2023-08-21T11:35:46;16.10;;;7.00;;
78312;SDS011;67568;47.438;21.408;2023-08-21T11:38:17;13.23;;;7.47;;
78312;SDS011;67568;47.438;21.408;2023-08-21T11:41:04;14.23;;;7.13;;
78312;SDS011;67568;47.438;21.408;2023-08-21T11:43:35;11.40;;;7.07;;
78312;SDS011;67568;47.438;21.408;2023-08-21T11:46:13;10.75;;;7.45;;
78312;SDS011;67568;47.438;21.408;2023-08-21T11:48:40;12.27;;;7.93;;
78312;SDS011;67568;47.438;21.408;2023-08-21T11:51:10;13.07;;;7.35;;
78312;SDS011;67568;47.438;21.408;2023-08-21T11:53:38;10.25;;;7.68;;
78312;SDS011;67568;47.438;21.408;2023-08-21T11:56:09;12.95;;;7.50;;
78312;SDS011;67568;47.438;21.408;2023-08-21T11:58:38;12.10;;;7.10;;
78312;SDS011;67568;47.438;21.408;2023-08-21T12:01:10;11.13;;;6.83;;
78312;SDS011;67568;47.438;21.408;2023-08-21T12:03:47;11.90;;;7.03;;
78312;SDS011;67568;47.438;21.408;2023-08-21T12:06:15;11.90;;;7.88;;
78312;SDS011;67568;47.438;21.408;2023-08-21T12:08:43;14.57;;;7.95;;
78312;SDS011;67568;47.438;21.408;2023-08-21T12:11:10;10.57;;;7.68;;
78312;SDS011;67568;47.438;21.408;2023-08-21T12:13:38;11.13;;;7.43;;
78312;SDS011;67568;47.438;21.408;2023-08-21T12:16:09;11.45;;;7.65;;
78312;SDS011;67568;47.438;21.408;2023-08-21T12:18:38;19.30;;;7.93;;
78312;SDS011;67568;47.438;21.408;2023-08-21T12:21:11;10.13;;;7.53;;
78312;SDS011;67568;47.438;21.408;2023-08-21T12:23:37;11.55;;;7.65;;
78312;SDS011;67568;47.438;21.408;2023-08-21T12:26:04;10.40;;;7.70;;
78312;SDS011;67568;47.438;21.408;2023-08-21T12:28:31;11.68;;;7.68;;
78312;SDS011;67568;47.438;21.408;2023-08-21T12:31:01;11.35;;;7.72;;
78312;SDS011;67568;47.438;21.408;2023-08-21T12:33:27;10.13;;;6.93;;
78312;SDS011;67568;47.438;21.408;2023-08-21T12:35:54;11.07;;;7.05;;
78312;SDS011;67568;47.438;21.408;2023-08-21T12:38:24;11.20;;;7.10;;
78312;SDS011;67568;47.438;21.408;2023-08-21T12:40:58;11.75;;;7.22;;
78312;SDS011;67568;47.438;21.408;2023-08-21T12:43:27;10.10;;;7.22;;
78312;SDS011;67568;47.438;21.408;2023-08-21T12:45:57;11.13;;;7.38;;
78312;SDS011;67568;47.438;21.408;2023-08-21T12:48:24;13.48;;;7.18;;
78312;SDS011;67568;47.438;21.408;2023-08-21T12:50:55;9.80;;;7.70;;
78312;SDS011;67568;47.438;21.408;2023-08-21T12:53:22;10.48;;;7.85;;
78312;SDS011;67568;47.438;21.408;2023-08-21T12:56:00;11.95;;;7.55;;
78312;SDS011;67568;47.438;21.408;2023-08-21T12:58:28;13.02;;;7.07;;
78312;SDS011;67568;47.438;21.408;2023-08-21T13:00:56;11.38;;;7.03;;
78312;SDS011;67568;47.438;21.408;2023-08-21T13:03:23;10.30;;;7.37;;
78312;SDS011;67568;47.438;21.408;2023-08-21T13:05:55;12.95;;;7.55;;
78312;SDS011;67568;47.438;21.408;2023-08-21T13:08:22;10.60;;;7.00;;
78312;SDS011;67568;47.438;21.408;2023-08-21T13:10:49;10.82;;;7.13;;
78312;SDS011;67568;47.438;21.408;2023-08-21T13:13:18;10.98;;;7.03;;
78312;SDS011;67568;47.438;21.408;2023-08-21T13:15:44;10.80;;;6.80;;
78312;SDS011;67568;47.438;21.408;2023-08-21T13:18:12;10.85;;;7.35;;
78312;SDS011;67568;47.438;21.408;2023-08-21T13:20:40;10.20;;;7.28;;
78312;SDS011;67568;47.438;21.408;2023-08-21T13:23:08;11.18;;;7.10;;
78312;SDS011;67568;47.438;21.408;2023-08-21T13:25:35;10.52;;;7.35;;
78312;SDS011;67568;47.438;21.408;2023-08-21T13:28:02;11.37;;;7.07;;
78312;SDS011;67568;47.438;21.408;2023-08-21T13:30:29;10.80;;;6.68;;
78312;SDS011;67568;47.438;21.408;2023-08-21T13:32:56;11.63;;;7.00;;
78312;SDS011;67568;47.438;21.408;2023-08-21T13:35:26;11.70;;;7.05;;
78312;SDS011;67568;47.438;21.408;2023-08-21T13:37:53;11.93;;;6.63;;
78312;SDS011;67568;47.438;21.408;2023-08-21T13:40:20;9.17;;;6.60;;
78312;SDS011;67568;47.438;21.408;2023-08-21T13:42:47;10.18;;;6.63;;
78312;SDS011;67568;47.438;21.408;2023-08-21T13:45:17;8.55;;;6.32;;
78312;SDS011;67568;47.438;21.408;2023-08-21T13:47:47;10.18;;;6.50;;
78312;SDS011;67568;47.438;21.408;2023-08-21T13:50:16;11.20;;;7.03;;
78312;SDS011;67568;47.438;21.408;2023-08-21T13:52:45;11.73;;;6.63;;
78312;SDS011;67568;47.438;21.408;2023-08-21T13:55:14;12.68;;;6.82;;
78312;SDS011;67568;47.438;21.408;2023-08-21T13:57:41;9.10;;;6.20;;
78312;SDS011;67568;47.438;21.408;2023-08-21T14:00:09;10.25;;;6.82;;
78312;SDS011;67568;47.438;21.408;2023-08-21T14:02:37;9.85;;;6.65;;
78312;SDS011;67568;47.438;21.408;2023-08-21T14:05:05;10.40;;;6.53;;
78312;SDS011;67568;47.438;21.408;2023-08-21T14:07:33;8.73;;;6.43;;
78312;SDS011;67568;47.438;21.408;2023-08-21T14:10:03;10.65;;;7.00;;
78312;SDS011;67568;47.438;21.408;2023-08-21T14:12:34;13.30;;;6.70;;
78312;SDS011;67568;47.438;21.408;2023-08-21T14:15:01;10.43;;;6.63;;
78312;SDS011;67568;47.438;21.408;2023-08-21T14:17:28;13.43;;;7.13;;
78312;SDS011;67568;47.438;21.408;2023-08-21T14:19:55;11.02;;;6.65;;
78312;SDS011;67568;47.438;21.408;2023-08-21T14:22:24;9.48;;;6.57;;
78312;SDS011;67568;47.438;21.408;2023-08-21T14:24:56;9.23;;;6.47;;
78312;SDS011;67568;47.438;21.408;2023-08-21T14:27:23;9.52;;;7.20;;
78312;SDS011;67568;47.438;21.408;2023-08-21T14:29:50;10.57;;;6.40;;
78312;SDS011;67568;47.438;21.408;2023-08-21T14:32:26;13.45;;;6.50;;
78312;SDS011;67568;47.438;21.408;2023-08-21T14:34:54;12.02;;;7.03;;
78312;SDS011;67568;47.438;21.408;2023-08-21T14:37:24;12.45;;;6.50;;
78312;SDS011;67568;47.438;21.408;2023-08-21T14:39:51;12.55;;;7.10;;
78312;SDS011;67568;47.438;21.408;2023-08-21T14:42:17;12.47;;;7.13;;
78312;SDS011;67568;47.438;21.408;2023-08-21T14:44:44;10.15;;;6.50;;
78312;SDS011;67568;47.438;21.408;2023-08-21T14:47:11;13.48;;;7.30;;
78312;SDS011;67568;47.438;21.408;2023-08-21T14:49:38;10.75;;;7.10;;
78312;SDS011;67568;47.438;21.408;2023-08-21T14:52:04;12.15;;;7.15;;
78312;SDS011;67568;47.438;21.408;2023-08-21T14:54:33;10.83;;;7.07;;
78312;SDS011;67568;47.438;21.408;2023-08-21T14:57:00;10.57;;;6.82;;
78312;SDS011;67568;47.438;21.408;2023-08-21T14:59:27;8.50;;;6.03;;
78312;SDS011;67568;47.438;21.408;2023-08-21T15:01:54;9.65;;;6.47;;
78312;SDS011;67568;47.438;21.408;2023-08-21T15:04:21;11.57;;;7.60;;
78312;SDS011;67568;47.438;21.408;2023-08-21T15:06:48;11.43;;;6.87;;
78312;SDS011;67568;47.438;21.408;2023-08-21T15:09:18;10.05;;;6.40;;
78312;SDS011;67568;47.438;21.408;2023-08-21T15:11:45;10.70;;;6.25;;
78312;SDS011;67568;47.438;21.408;2023-08-21T15:14:12;9.50;;;6.32;;
78312;SDS011;67568;47.438;21.408;2023-08-21T15:16:42;10.38;;;6.07;;
78312;SDS011;67568;47.438;21.408;2023-08-21T15:19:37;11.93;;;6.83;;
78312;SDS011;67568;47.438;21.408;2023-08-21T15:22:10;11.05;;;6.32;;
78312;SDS011;67568;47.438;21.408;2023-08-21T15:24:36;12.82;;;6.43;;
78312;SDS011;67568;47.438;21.408;2023-08-21T15:27:07;11.35;;;6.63;;
78312;SDS011;67568;47.438;21.408;2023-08-21T15:29:34;12.27;;;6.53;;
78312;SDS011;67568;47.438;21.408;2023-08-21T15:32:01;13.60;;;6.47;;
78312;SDS011;67568;47.438;21.408;2023-08-21T15:34:27;9.52;;;6.53;;
78312;SDS011;67568;47.438;21.408;2023-08-21T15:37:03;12.23;;;6.90;;
78312;SDS011;67568;47.438;21.408;2023-08-21T15:39:30;10.63;;;6.32;;
78312;SDS011;67568;47.438;21.408;2023-08-21T15:41:57;14.65;;;6.88;;
78312;SDS011;67568;47.438;21.408;2023-08-21T15:44:24;12.17;;;6.70;;
78312;SDS011;67568;47.438;21.408;2023-08-21T15:46:57;11.38;;;6.25;;
78312;SDS011;67568;47.438;21.408;2023-08-21T15:49:46;11.07;;;6.65;;
78312;SDS011;67568;47.438;21.408;2023-08-21T15:52:13;11.18;;;6.20;;
78312;SDS011;67568;47.438;21.408;2023-08-21T15:54:40;10.68;;;6.80;;
78312;SDS011;67568;47.438;21.408;2023-08-21T15:57:07;12.00;;;6.70;;
78312;SDS011;67568;47.438;21.408;2023-08-21T15:59:34;11.75;;;6.70;;
78312;SDS011;67568;47.438;21.408;2023-08-21T16:02:02;10.65;;;6.32;;
78312;SDS011;67568;47.438;21.408;2023-08-21T16:04:31;13.73;;;6.35;;
78312;SDS011;67568;47.438;21.408;2023-08-21T16:06:58;9.68;;;6.32;;
78312;SDS011;67568;47.438;21.408;2023-08-21T16:09:33;13.60;;;7.00;;
78312;SDS011;67568;47.438;21.408;2023-08-21T16:12:01;13.23;;;6.57;;
78312;SDS011;67568;47.438;21.408;2023-08-21T16:14:28;11.48;;;6.55;;
78312;SDS011;67568;47.438;21.408;2023-08-21T16:16:56;11.57;;;6.30;;
78312;SDS011;67568;47.438;21.408;2023-08-21T16:19:23;11.90;;;6.50;;
78312;SDS011;67568;47.438;21.408;2023-08-21T16:21:50;9.67;;;5.90;;
78312;SDS011;67568;47.438;21.408;2023-08-21T16:24:17;12.50;;;6.30;;
78312;SDS011;67568;47.438;21.408;2023-08-21T16:26:44;11.30;;;6.82;;
78312;SDS011;67568;47.438;21.408;2023-08-21T16:29:14;9.90;;;6.28;;
78312;SDS011;67568;47.438;21.408;2023-08-21T16:31:41;12.82;;;6.40;;
78312;SDS011;67568;47.438;21.408;2023-08-21T16:34:10;13.47;;;6.47;;
78312;SDS011;67568;47.438;21.408;2023-08-21T16:36:42;10.30;;;6.20;;
78312;SDS011;67568;47.438;21.408;2023-08-21T16:39:12;16.00;;;6.82;;
78312;SDS011;67568;47.438;21.408;2023-08-21T16:41:39;11.10;;;7.18;;
78312;SDS011;67568;47.438;21.408;2023-08-21T16:44:06;11.55;;;7.18;;
78312;SDS011;67568;47.438;21.408;2023-08-21T16:46:33;15.77;;;6.93;;
78312;SDS011;67568;47.438;21.408;2023-08-21T16:49:01;11.68;;;7.30;;
78312;SDS011;67568;47.438;21.408;2023-08-21T16:51:28;10.73;;;6.82;;
78312;SDS011;67568;47.438;21.408;2023-08-21T16:53:55;12.63;;;6.93;;
78312;SDS011;67568;47.438;21.408;2023-08-21T16:56:23;14.35;;;7.43;;
78312;SDS011;67568;47.438;21.408;2023-08-21T16:58:51;12.57;;;7.23;;
78312;SDS011;67568;47.438;21.408;2023-08-21T17:01:17;10.63;;;6.90;;
78312;SDS011;67568;47.438;21.408;2023-08-21T17:03:44;12.45;;;7.20;;
78312;SDS011;67568;47.438;21.408;2023-08-21T17:06:11;12.98;;;7.43;;
78312;SDS011;67568;47.438;21.408;2023-08-21T17:08:38;11.15;;;7.22;;
78312;SDS011;67568;47.438;21.408;2023-08-21T17:11:05;13.70;;;7.57;;
78312;SDS011;67568;47.438;21.408;2023-08-21T17:13:32;13.65;;;7.65;;
78312;SDS011;67568;47.438;21.408;2023-08-21T17:15:59;12.52;;;7.85;;
78312;SDS011;67568;47.438;21.408;2023-08-21T17:18:26;12.82;;;7.68;;
78312;SDS011;67568;47.438;21.408;2023-08-21T17:20:55;11.95;;;7.30;;
78312;SDS011;67568;47.438;21.408;2023-08-21T17:23:22;13.30;;;7.80;;
78312;SDS011;67568;47.438;21.408;2023-08-21T17:25:48;11.50;;;7.53;;
78312;SDS011;67568;47.438;21.408;2023-08-21T17:28:21;12.55;;;7.72;;
78312;SDS011;67568;47.438;21.408;2023-08-21T17:30:48;10.10;;;7.60;;
78312;SDS011;67568;47.438;21.408;2023-08-21T17:33:16;13.57;;;7.55;;
78312;SDS011;67568;47.438;21.408;2023-08-21T17:35:43;10.63;;;7.63;;
78312;SDS011;67568;47.438;21.408;2023-08-21T17:38:10;13.23;;;8.02;;
78312;SDS011;67568;47.438;21.408;2023-08-21T17:40:37;12.80;;;8.45;;
78312;SDS011;67568;47.438;21.408;2023-08-21T17:43:04;13.13;;;7.65;;
78312;SDS011;67568;47.438;21.408;2023-08-21T17:45:33;13.25;;;7.72;;
78312;SDS011;67568;47.438;21.408;2023-08-21T17:48:03;15.63;;;7.90;;
78312;SDS011;67568;47.438;21.408;2023-08-21T17:50:30;13.07;;;8.38;;
78312;SDS011;67568;47.438;21.408;2023-08-21T17:52:57;16.70;;;7.70;;
78312;SDS011;67568;47.438;21.408;2023-08-21T17:55:24;12.52;;;8.57;;
78312;SDS011;67568;47.438;21.408;2023-08-21T17:57:51;11.23;;;7.75;;
78312;SDS011;67568;47.438;21.408;2023-08-21T18:00:18;14.47;;;8.23;;
78312;SDS011;67568;47.438;21.408;2023-08-21T18:02:47;14.38;;;8.55;;
78312;SDS011;67568;47.438;21.408;2023-08-21T18:05:21;13.05;;;8.45;;
78312;SDS011;67568;47.438;21.408;2023-08-21T18:07:48;12.07;;;8.48;;
78312;SDS011;67568;47.438;21.408;2023-08-21T18:10:14;11.27;;;8.15;;
78312;SDS011;67568;47.438;21.408;2023-08-21T18:12:42;16.60;;;8.53;;
78312;SDS011;67568;47.438;21.408;2023-08-21T18:15:09;12.85;;;8.45;;
78312;SDS011;67568;47.438;21.408;2023-08-21T18:17:40;12.23;;;8.32;;
78312;SDS011;67568;47.438;21.408;2023-08-21T18:20:10;12.65;;;8.95;;
78312;SDS011;67568;47.438;21.408;2023-08-21T18:22:40;14.02;;;9.10;;
78312;SDS011;67568;47.438;21.408;2023-08-21T18:25:12;19.20;;;9.40;;
78312;SDS011;67568;47.438;21.408;2023-08-21T18:27:42;13.60;;;8.82;;
78312;SDS011;67568;47.438;21.408;2023-08-21T18:30:16;16.48;;;9.10;;
78312;SDS011;67568;47.438;21.408;2023-08-21T18:32:44;12.05;;;9.15;;
78312;SDS011;67568;47.438;21.408;2023-08-21T18:35:11;16.85;;;9.45;;
78312;SDS011;67568;47.438;21.408;2023-08-21T18:37:38;15.23;;;9.33;;
78312;SDS011;67568;47.438;21.408;2023-08-21T18:40:08;14.32;;;9.52;;
78312;SDS011;67568;47.438;21.408;2023-08-21T18:42:38;12.30;;;9.00;;
78312;SDS011;67568;47.438;21.408;2023-08-21T18:45:12;14.98;;;9.38;;
78312;SDS011;67568;47.438;21.408;2023-08-21T18:47:39;19.08;;;9.30;;
78312;SDS011;67568;47.438;21.408;2023-08-21T18:50:06;15.40;;;8.90;;
78312;SDS011;67568;47.438;21.408;2023-08-21T18:52:33;15.80;;;8.77;;
78312;SDS011;67568;47.438;21.408;2023-08-21T18:55:00;12.70;;;9.02;;
78312;SDS011;67568;47.438;21.408;2023-08-21T18:57:27;13.70;;;9.20;;
78312;SDS011;67568;47.438;21.408;2023-08-21T18:59:55;14.60;;;8.48;;
78312;SDS011;67568;47.438;21.408;2023-08-21T19:02:31;11.73;;;8.63;;
78312;SDS011;67568;47.438;21.408;2023-08-21T19:04:58;12.18;;;8.95;;
78312;SDS011;67568;47.438;21.408;2023-08-21T19:07:24;15.95;;;8.50;;
78312;SDS011;67568;47.438;21.408;2023-08-21T19:09:53;16.13;;;8.40;;
78312;SDS011;67568;47.438;21.408;2023-08-21T19:12:23;13.07;;;8.77;;
78312;SDS011;67568;47.438;21.408;2023-08-21T19:14:50;14.80;;;8.90;;
78312;SDS011;67568;47.438;21.408;2023-08-21T19:17:17;17.10;;;9.05;;
78312;SDS011;67568;47.438;21.408;2023-08-21T19:19:44;14.23;;;9.77;;
78312;SDS011;67568;47.438;21.408;2023-08-21T19:22:11;18.08;;;9.25;;
78312;SDS011;67568;47.438;21.408;2023-08-21T19:24:37;16.05;;;9.35;;
78312;SDS011;67568;47.438;21.408;2023-08-21T19:27:04;14.40;;;9.40;;
78312;SDS011;67568;47.438;21.408;2023-08-21T19:29:31;14.85;;;8.88;;
78312;SDS011;67568;47.438;21.408;2023-08-21T19:31:58;14.70;;;8.77;;
78312;SDS011;67568;47.438;21.408;2023-08-21T19:34:25;14.07;;;8.88;;
78312;SDS011;67568;47.438;21.408;2023-08-21T19:36:54;14.93;;;8.70;;
78312;SDS011;67568;47.438;21.408;2023-08-21T19:39:22;12.77;;;9.60;;
78312;SDS011;67568;47.438;21.408;2023-08-21T19:41:49;14.50;;;9.30;;
78312;SDS011;67568;47.438;21.408;2023-08-21T19:44:16;16.83;;;10.07;;
78312;SDS011;67568;47.438;21.408;2023-08-21T19:46:43;12.60;;;9.32;;
78312;SDS011;67568;47.438;21.408;2023-08-21T19:49:09;17.33;;;9.75;;
78312;SDS011;67568;47.438;21.408;2023-08-21T19:51:36;18.50;;;10.27;;
78312;SDS011;67568;47.438;21.408;2023-08-21T19:54:03;20.60;;;10.80;;
78312;SDS011;67568;47.438;21.408;2023-08-21T19:56:30;15.98;;;10.27;;
78312;SDS011;67568;47.438;21.408;2023-08-21T19:58:57;15.98;;;10.70;;
78312;SDS011;67568;47.438;21.408;2023-08-21T20:01:23;18.98;;;10.32;;
78312;SDS011;67568;47.438;21.408;2023-08-21T20:03:53;14.73;;;10.27;;
78312;SDS011;67568;47.438;21.408;2023-08-21T20:06:23;20.23;;;10.43;;
78312;SDS011;67568;47.438;21.408;2023-08-21T20:08:53;17.83;;;10.80;;
78312;SDS011;67568;47.438;21.408;2023-08-21T20:11:20;16.13;;;10.43;;
78312;SDS011;67568;47.438;21.408;2023-08-21T20:13:47;20.95;;;10.13;;
78312;SDS011;67568;47.438;21.408;2023-08-21T20:16:14;17.97;;;9.77;;
78312;SDS011;67568;47.438;21.408;2023-08-21T20:18:48;17.00;;;10.13;;
78312;SDS011;67568;47.438;21.408;2023-08-21T20:21:20;20.85;;;9.85;;
78312;SDS011;67568;47.438;21.408;2023-08-21T20:23:53;15.55;;;10.18;;
78312;SDS011;67568;47.438;21.408;2023-08-21T20:26:32;15.45;;;10.27;;
78312;SDS011;67568;47.438;21.408;2023-08-21T20:28:59;16.20;;;10.43;;
78312;SDS011;67568;47.438;21.408;2023-08-21T20:31:26;13.65;;;10.32;;
78312;SDS011;67568;47.438;21.408;2023-08-21T20:33:52;15.40;;;9.88;;
78312;SDS011;67568;47.438;21.408;2023-08-21T20:36:21;13.77;;;9.85;;
78312;SDS011;67568;47.438;21.408;2023-08-21T20:38:54;15.50;;;10.38;;
78312;SDS011;67568;47.438;21.408;2023-08-21T20:41:20;16.63;;;10.30;;
78312;SDS011;67568;47.438;21.408;2023-08-21T20:43:47;15.13;;;9.50;;
78312;SDS011;67568;47.438;21.408;2023-08-21T20:46:15;15.98;;;10.35;;
78312;SDS011;67568;47.438;21.408;2023-08-21T20:48:42;15.75;;;10.00;;
78312;SDS011;67568;47.438;21.408;2023-08-21T20:51:10;16.52;;;10.23;;
78312;SDS011;67568;47.438;21.408;2023-08-21T20:53:39;13.93;;;9.77;;
78312;SDS011;67568;47.438;21.408;2023-08-21T20:56:06;14.02;;;9.70;;
78312;SDS011;67568;47.438;21.408;2023-08-21T20:58:32;14.98;;;10.30;;
78312;SDS011;67568;47.438;21.408;2023-08-21T21:01:02;19.90;;;10.30;;
78312;SDS011;67568;47.438;21.408;2023-08-21T21:03:28;14.88;;;10.25;;
78312;SDS011;67568;47.438;21.408;2023-08-21T21:05:58;18.03;;;11.70;;
78312;SDS011;67568;47.438;21.408;2023-08-21T21:08:25;21.02;;;11.55;;
78312;SDS011;67568;47.438;21.408;2023-08-21T21:10:54;16.50;;;11.15;;
78312;SDS011;67568;47.438;21.408;2023-08-21T21:13:22;16.88;;;10.70;;
78312;SDS011;67568;47.438;21.408;2023-08-21T21:15:52;19.20;;;11.05;;
78312;SDS011;67568;47.438;21.408;2023-08-21T21:18:19;18.30;;;10.87;;
78312;SDS011;67568;47.438;21.408;2023-08-21T21:20:48;15.38;;;11.27;;
78312;SDS011;67568;47.438;21.408;2023-08-21T21:23:14;18.60;;;10.80;;
78312;SDS011;67568;47.438;21.408;2023-08-21T21:25:41;20.35;;;11.65;;
78312;SDS011;67568;47.438;21.408;2023-08-21T21:28:08;19.77;;;11.38;;
78312;SDS011;67568;47.438;21.408;2023-08-21T21:30:35;17.57;;;11.53;;
78312;SDS011;67568;47.438;21.408;2023-08-21T21:33:02;21.00;;;11.70;;
78312;SDS011;67568;47.438;21.408;2023-08-21T21:35:31;19.35;;;12.25;;
78312;SDS011;67568;47.438;21.408;2023-08-21T21:38:00;17.80;;;11.50;;
78312;SDS011;67568;47.438;21.408;2023-08-21T21:40:30;18.63;;;11.48;;
78312;SDS011;67568;47.438;21.408;2023-08-21T21:43:02;15.90;;;11.33;;
78312;SDS011;67568;47.438;21.408;2023-08-21T21:45:30;17.27;;;12.02;;
78312;SDS011;67568;47.438;21.408;2023-08-21T21:48:00;17.27;;;12.00;;
78312;SDS011;67568;47.438;21.408;2023-08-21T21:50:27;16.50;;;10.75;;
78312;SDS011;67568;47.438;21.408;2023-08-21T21:52:54;15.35;;;11.13;;
78312;SDS011;67568;47.438;21.408;2023-08-21T21:55:22;18.43;;;11.60;;
78312;SDS011;67568;47.438;21.408;2023-08-21T21:57:48;17.15;;;10.90;;
78312;SDS011;67568;47.438;21.408;2023-08-21T22:00:15;18.33;;;11.55;;
78312;SDS011;67568;47.438;21.408;2023-08-21T22:02:42;16.02;;;11.75;;
78312;SDS011;67568;47.438;21.408;2023-08-21T22:05:16;15.55;;;11.73;;
78312;SDS011;67568;47.438;21.408;2023-08-21T22:07:45;18.90;;;11.20;;
78312;SDS011;67568;47.438;21.408;2023-08-21T22:10:12;14.95;;;11.35;;
78312;SDS011;67568;47.438;21.408;2023-08-21T22:12:39;16.67;;;11.68;;
78312;SDS011;67568;47.438;21.408;2023-08-21T22:15:13;18.55;;;11.65;;
78312;SDS011;67568;47.438;21.408;2023-08-21T22:17:40;17.45;;;11.65;;
78312;SDS011;67568;47.438;21.408;2023-08-21T22:20:07;19.33;;;11.40;;
78312;SDS011;67568;47.438;21.408;2023-08-21T22:22:55;13.55;;;10.90;;
78312;SDS011;67568;47.438;21.408;2023-08-21T22:25:30;17.00;;;10.50;;
78312;SDS011;67568;47.438;21.408;2023-08-21T22:27:59;14.52;;;10.73;;
78312;SDS011;67568;47.438;21.408;2023-08-21T22:30:28;15.98;;;11.05;;
78312;SDS011;67568;47.438;21.408;2023-08-21T22:32:54;15.27;;;10.70;;
78312;SDS011;67568;47.438;21.408;2023-08-21T22:35:21;13.93;;;10.48;;
78312;SDS011;67568;47.438;21.408;2023-08-21T22:37:48;15.75;;;11.27;;
78312;SDS011;67568;47.438;21.408;2023-08-21T22:40:16;14.18;;;10.75;;
78312;SDS011;67568;47.438;21.408;2023-08-21T22:42:43;15.93;;;11.07;;
78312;SDS011;67568;47.438;21.408;2023-08-21T22:45:09;16.13;;;10.93;;
78312;SDS011;67568;47.438;21.408;2023-08-21T22:47:36;15.15;;;11.10;;
78312;SDS011;67568;47.438;21.408;2023-08-21T22:50:03;16.42;;;11.38;;
78312;SDS011;67568;47.438;21.408;2023-08-21T22:52:31;14.02;;;10.52;;
78312;SDS011;67568;47.438;21.408;2023-08-21T22:54:59;14.95;;;11.13;;
78312;SDS011;67568;47.438;21.408;2023-08-21T22:57:27;16.80;;;11.13;;
78312;SDS011;67568;47.438;21.408;2023-08-21T22:59:54;15.35;;;10.98;;
78312;SDS011;67568;47.438;21.408;2023-08-21T23:02:21;15.18;;;10.40;;
78312;SDS011;67568;47.438;21.408;2023-08-21T23:04:48;14.70;;;10.70;;
78312;SDS011;67568;47.438;21.408;2023-08-21T23:07:15;14.50;;;10.60;;
78312;SDS011;67568;47.438;21.408;2023-08-21T23:09:41;17.53;;;10.93;;
78312;SDS011;67568;47.438;21.408;2023-08-21T23:12:08;15.52;;;10.98;;
78312;SDS011;67568;47.438;21.408;2023-08-21T23:14:36;15.02;;;10.73;;
78312;SDS011;67568;47.438;21.408;2023-08-21T23:17:05;16.20;;;10.55;;
78312;SDS011;67568;47.438;21.408;2023-08-21T23:19:32;19.92;;;10.68;;